Pemberville, Ohio
Current Conditions -  °F | °C
As of 8:45 PM on Monday 20 Oct 2014 (Local Time) from KTDZ Reporting Station
Broken Clouds Broken Clouds  
Wind Chill: 52°   Ceiling: 9500
Heat Index: 52°   Visibility: 8mi
Dew Point: 49°   Wind: 6mph
Humidity: 89%   Direction: 280°W
Pressure: 29.86"   Gusts: NA
Location:  41.41°N, 83.46°W
Report Text: KTDZ 210045Z AUTO 28005KT 8SM FEW012 SCT026 BKN095 11/09 A2986 RMK AO2 T01110094 TSNO
Loading
Personal Weather Stations






























Interactive Weather Map
Tropical Storm Tracking
New forecast layout! Learn more

10-Day Weather Forecast

Advertisements
Track Severe Weather on mobile